createdAt,value
2022-12-11T00:00:25.609Z,100290.72
2022-12-11T00:02:52.319Z,100301.06
2022-12-11T00:05:18.886Z,100297.66
2022-12-11T00:07:45.455Z,100304.16
2022-12-11T00:10:12.048Z,100301.59
2022-12-11T00:12:38.589Z,100291.34
2022-12-11T00:15:05.520Z,100303.75
2022-12-11T00:17:32.040Z,100301.88
2022-12-11T00:19:58.641Z,100304.16
2022-12-11T00:22:25.172Z,100305.91
2022-12-11T00:24:51.919Z,100302.53
2022-12-11T00:27:18.446Z,100297.94
2022-12-11T00:29:45.062Z,100300.25
2022-12-11T00:32:11.596Z,100304.50
2022-12-11T00:34:38.300Z,100300.66
2022-12-11T00:37:04.911Z,100296.22
2022-12-11T00:39:31.589Z,100306.63
2022-12-11T00:41:58.292Z,100295.75
2022-12-11T00:44:25.471Z,100299.38
2022-12-11T00:46:52.089Z,100301.38
2022-12-11T00:49:18.853Z,100295.63
2022-12-11T00:51:45.355Z,100297.91
2022-12-11T00:54:11.918Z,100294.44
2022-12-11T00:56:38.506Z,100294.16
2022-12-11T00:59:05.038Z,100296.97
2022-12-11T01:01:31.885Z,100289.75
2022-12-11T01:03:58.532Z,100288.09
2022-12-11T01:06:27.088Z,100286.19
2022-12-11T01:09:12.751Z,100290.34
2022-12-11T01:11:39.599Z,100294.88
2022-12-11T01:14:06.651Z,100295.50
2022-12-11T01:16:33.253Z,100290.97
2022-12-11T01:19:00.362Z,100288.41
2022-12-11T01:21:26.880Z,100293.28
2022-12-11T01:23:53.431Z,100297.41
2022-12-11T01:26:20.370Z,100294.69
2022-12-11T01:28:50.149Z,100300.13
2022-12-11T01:31:18.600Z,100292.09
2022-12-11T01:33:45.202Z,100292.78
2022-12-11T01:36:15.394Z,100291.78
2022-12-11T01:38:43.805Z,100292.53
2022-12-11T01:41:10.458Z,100288.13
2022-12-11T01:44:03.944Z,100280.09
2022-12-11T01:46:32.216Z,100287.28
2022-12-11T01:49:00.806Z,100287.13
2022-12-11T01:51:29.452Z,100274.63
2022-12-11T01:54:01.010Z,100275.66
2022-12-11T01:56:32.449Z,100273.31
2022-12-11T01:59:07.045Z,100270.84
2022-12-11T02:01:43.324Z,100271.41
2022-12-11T02:04:15.811Z,100287.44
2022-12-11T02:06:48.182Z,100283.16
2022-12-11T02:09:18.922Z,100279.56
2022-12-11T02:12:21.028Z,100278.97
2022-12-11T02:14:59.541Z,100276.84
2022-12-11T02:17:37.886Z,100283.50
2022-12-11T02:20:16.230Z,100277.94
2022-12-11T02:22:51.634Z,100276.06
2022-12-11T02:25:32.670Z,100271.66
2022-12-11T02:28:23.633Z,100271.28
2022-12-11T02:30:54.209Z,100274.69
2022-12-11T02:33:30.825Z,100272.56
2022-12-11T02:35:57.992Z,100271.53
2022-12-11T02:38:30.792Z,100275.69
2022-12-11T02:41:00.395Z,100278.38
2022-12-11T02:43:27.754Z,100278.91
2022-12-11T02:45:55.401Z,100267.94
2022-12-11T02:48:24.270Z,100257.00
2022-12-11T02:50:56.401Z,100258.69
2022-12-11T02:53:27.881Z,100253.41
2022-12-11T02:56:02.594Z,100272.16
2022-12-11T02:58:33.765Z,100252.75
2022-12-11T03:01:00.536Z,100249.44
2022-12-11T03:03:29.458Z,100253.13
2022-12-11T03:05:56.211Z,100251.56
2022-12-11T03:08:22.916Z,100252.97
2022-12-11T03:10:49.452Z,100241.97
2022-12-11T03:13:19.802Z,100245.47
2022-12-11T03:15:57.495Z,100249.03
2022-12-11T03:18:41.183Z,100245.59
2022-12-11T03:21:26.982Z,100246.53
2022-12-11T03:24:05.139Z,100247.75
2022-12-11T03:26:38.822Z,100253.16
2022-12-11T03:29:33.637Z,100251.91
2022-12-11T03:32:23.147Z,100252.09
2022-12-11T03:35:03.504Z,100253.25
2022-12-11T03:37:34.466Z,100258.38
2022-12-11T03:40:07.453Z,100264.13
2022-12-11T03:42:35.676Z,100261.78
2022-12-11T03:45:04.859Z,100257.31
2022-12-11T03:47:33.086Z,100254.09
2022-12-11T03:50:01.985Z,100260.97
2022-12-11T03:52:29.410Z,100252.41
2022-12-11T03:55:00.853Z,100258.09
2022-12-11T03:57:32.846Z,100247.44
2022-12-11T03:59:59.400Z,100246.13
2022-12-11T04:02:25.886Z,100248.94
2022-12-11T04:04:52.510Z,100248.03
2022-12-11T04:07:18.997Z,100251.66
2022-12-11T04:09:45.612Z,100250.03
2022-12-11T04:12:12.119Z,100248.13
2022-12-11T04:14:57.456Z,100249.38
2022-12-11T04:17:42.595Z,100251.13
2022-12-11T04:20:28.873Z,100245.94
2022-12-11T04:23:14.143Z,100241.91
2022-12-11T04:25:40.898Z,100234.84
2022-12-11T04:28:07.544Z,100243.31
2022-12-11T04:30:34.591Z,100234.84
2022-12-11T04:33:01.548Z,100239.25
2022-12-11T04:35:28.325Z,100240.97
2022-12-11T04:37:54.932Z,100233.19
2022-12-11T04:40:21.877Z,100238.09
2022-12-11T04:42:48.558Z,100229.16
2022-12-11T04:45:15.145Z,100229.16
2022-12-11T04:47:42.115Z,100229.91
2022-12-11T04:50:11.104Z,100224.16
2022-12-11T04:52:37.642Z,100229.38
2022-12-11T04:55:06.192Z,100226.59
2022-12-11T04:57:33.056Z,100229.16
2022-12-11T04:59:59.969Z,100224.47
2022-12-11T05:02:26.931Z,100220.06
2022-12-11T05:04:53.623Z,100222.41
2022-12-11T05:07:20.222Z,100232.03
2022-12-11T05:09:46.763Z,100224.13
2022-12-11T05:12:13.354Z,100221.84
2022-12-11T05:14:39.923Z,100224.38
2022-12-11T05:17:06.403Z,100224.16
2022-12-11T05:19:32.998Z,100224.16
2022-12-11T05:21:59.527Z,100221.75
2022-12-11T05:24:26.091Z,100229.06
2022-12-11T05:26:52.600Z,100225.13
2022-12-11T05:29:19.182Z,100217.59
2022-12-11T05:31:45.778Z,100214.44
2022-12-11T05:34:12.437Z,100217.03
2022-12-11T05:36:38.914Z,100212.53
2022-12-11T05:39:05.469Z,100216.13
2022-12-11T05:41:32.890Z,100218.47
2022-12-11T05:44:00.086Z,100216.38
2022-12-11T05:46:29.349Z,100226.06
2022-12-11T05:48:58.958Z,100223.25
2022-12-11T05:51:27.047Z,100221.16
2022-12-11T05:53:55.145Z,100212.78
2022-12-11T05:56:25.089Z,100222.78
2022-12-11T05:58:52.232Z,100221.53
2022-12-11T06:01:27.801Z,100218.84
2022-12-11T06:03:55.668Z,100208.81
2022-12-11T06:06:23.470Z,100218.28
2022-12-11T06:08:51.733Z,100214.13
2022-12-11T06:11:23.585Z,100209.75
2022-12-11T06:13:51.006Z,100204.41
2022-12-11T06:16:17.623Z,100205.34
2022-12-11T06:18:45.326Z,100205.75
2022-12-11T06:21:13.501Z,100197.59
2022-12-11T06:23:41.420Z,100194.44
2022-12-11T06:26:08.719Z,100195.09
2022-12-11T06:28:35.269Z,100193.44
2022-12-11T06:31:02.251Z,100191.03
2022-12-11T06:33:29.578Z,100197.81
2022-12-11T06:35:56.822Z,100191.94
2022-12-11T06:38:23.398Z,100197.06
2022-12-11T06:40:57.633Z,100198.59
2022-12-11T06:43:24.850Z,100199.47
2022-12-11T06:45:52.021Z,100205.09
2022-12-11T06:48:19.839Z,100208.72
2022-12-11T06:50:46.660Z,100205.56
2022-12-11T06:53:16.133Z,100207.34
2022-12-11T06:55:43.031Z,100204.66
2022-12-11T06:58:10.806Z,100201.91
2022-12-11T07:00:38.482Z,100203.59
2022-12-11T07:03:05.615Z,100205.84
2022-12-11T07:05:33.202Z,100206.19
2022-12-11T07:07:59.854Z,100204.56
2022-12-11T07:10:26.490Z,100210.38
2022-12-11T07:12:54.238Z,100213.09
2022-12-11T07:15:21.031Z,100218.97
2022-12-11T07:17:47.563Z,100216.94
2022-12-11T07:20:14.182Z,100217.31
2022-12-11T07:22:46.216Z,100211.88
2022-12-11T07:25:14.219Z,100216.41
2022-12-11T07:27:41.573Z,100209.78
2022-12-11T07:30:09.484Z,100203.94
2022-12-11T07:32:36.289Z,100208.59
2022-12-11T07:35:03.300Z,100206.59
2022-12-11T07:37:29.885Z,100211.94
2022-12-11T07:39:56.441Z,100215.13
2022-12-11T07:42:23.158Z,100218.84
2022-12-11T07:44:49.753Z,100218.09
2022-12-11T07:47:16.314Z,100220.41
2022-12-11T07:49:42.938Z,100218.53
2022-12-11T07:52:09.995Z,100221.47
2022-12-11T07:54:36.785Z,100213.63
2022-12-11T07:57:03.469Z,100218.00
2022-12-11T07:59:30.079Z,100215.84
2022-12-11T08:01:56.743Z,100216.06
2022-12-11T08:04:23.359Z,100224.53
2022-12-11T08:06:51.127Z,100222.16
2022-12-11T08:09:21.324Z,100219.81
2022-12-11T08:11:51.884Z,100220.16
2022-12-11T08:14:19.555Z,100218.56
2022-12-11T08:16:46.352Z,100222.28
2022-12-11T08:19:13.739Z,100221.75
2022-12-11T08:21:40.460Z,100221.31
2022-12-11T08:24:08.199Z,100221.41
2022-12-11T08:26:34.811Z,100221.09
2022-12-11T08:29:02.517Z,100221.31
2022-12-11T08:31:29.674Z,100217.38
2022-12-11T08:33:57.473Z,100222.06
2022-12-11T08:36:24.865Z,100221.81
2022-12-11T08:38:52.149Z,100222.06
2022-12-11T08:41:21.337Z,100227.91
2022-12-11T08:43:49.851Z,100225.25
2022-12-11T08:46:16.573Z,100216.94
2022-12-11T08:48:43.693Z,100219.41
2022-12-11T08:51:17.212Z,100214.91
2022-12-11T08:53:44.482Z,100217.25
2022-12-11T08:56:15.142Z,100213.47
2022-12-11T08:58:42.931Z,100216.69
2022-12-11T09:01:19.175Z,100217.47
2022-12-11T09:03:45.836Z,100221.09
2022-12-11T09:06:15.130Z,100213.91
2022-12-11T09:08:46.030Z,100216.25
2022-12-11T09:11:20.518Z,100215.91
2022-12-11T09:13:47.201Z,100214.88
2022-12-11T09:16:17.030Z,100211.88
2022-12-11T09:18:46.760Z,100218.16
2022-12-11T09:21:15.406Z,100220.47
2022-12-11T09:23:42.316Z,100218.34
2022-12-11T09:26:14.013Z,100213.84
2022-12-11T09:28:45.990Z,100210.31
2022-12-11T09:31:27.345Z,100218.44
2022-12-11T09:33:57.262Z,100217.97
2022-12-11T09:36:24.617Z,100220.34
2022-12-11T09:38:51.882Z,100220.53
2022-12-11T09:41:21.547Z,100219.81
2022-12-11T09:44:03.351Z,100219.06
2022-12-11T09:46:34.366Z,100209.38
2022-12-11T09:49:03.960Z,100211.72
2022-12-11T09:51:39.281Z,100201.59
2022-12-11T09:54:05.926Z,100207.78
2022-12-11T09:56:36.215Z,100210.84
2022-12-11T09:59:19.217Z,100203.09
2022-12-11T10:01:54.876Z,100214.44
2022-12-11T10:04:54.312Z,100209.75
2022-12-11T10:07:49.124Z,100203.88
2022-12-11T10:10:40.362Z,100209.31
2022-12-11T10:13:15.035Z,100209.38
2022-12-11T10:15:58.036Z,100213.25
2022-12-11T10:18:29.547Z,100201.91
2022-12-11T10:20:56.939Z,100202.53
2022-12-11T10:23:35.320Z,100199.06
2022-12-11T10:26:10.364Z,100203.88
2022-12-11T10:28:37.186Z,100194.44
2022-12-11T10:31:22.182Z,100202.53
2022-12-11T10:34:02.443Z,100191.44
2022-12-11T10:36:32.347Z,100189.22
2022-12-11T10:38:59.210Z,100183.56
2022-12-11T10:41:31.844Z,100183.44
2022-12-11T10:43:59.211Z,100182.19
2022-12-11T10:46:32.954Z,100177.44
2022-12-11T10:49:01.380Z,100176.06
2022-12-11T10:51:31.693Z,100182.94
2022-12-11T10:54:07.488Z,100180.44
2022-12-11T10:56:37.378Z,100173.78
2022-12-11T10:59:04.312Z,100171.16
2022-12-11T11:01:32.479Z,100173.41
2022-12-11T11:04:18.701Z,100175.97
2022-12-11T11:06:45.261Z,100178.53
2022-12-11T11:09:37.547Z,100171.38
2022-12-11T11:12:07.863Z,100169.88
2022-12-11T11:14:34.845Z,100174.78
2022-12-11T11:17:01.428Z,100172.47
2022-12-11T11:19:33.680Z,100177.59
2022-12-11T11:22:14.633Z,100174.69
2022-12-11T11:24:46.329Z,100168.97
2022-12-11T11:27:43.404Z,100168.84
2022-12-11T11:30:25.962Z,100172.00
2022-12-11T11:33:00.896Z,100158.53
2022-12-11T11:35:30.085Z,100161.97
2022-12-11T11:38:22.799Z,100164.13
2022-12-11T11:41:08.947Z,100159.75
2022-12-11T11:43:47.324Z,100158.94
2022-12-11T11:46:16.010Z,100162.63
2022-12-11T11:49:13.113Z,100162.72
2022-12-11T11:51:46.243Z,100161.34
2022-12-11T11:54:41.193Z,100154.56
2022-12-11T11:57:22.593Z,100153.50
2022-12-11T11:59:53.972Z,100155.88
2022-12-11T12:02:20.849Z,100147.34
2022-12-11T12:04:51.195Z,100143.63
2022-12-11T12:07:39.033Z,100138.84
2022-12-11T12:10:34.852Z,100151.72
2022-12-11T12:13:24.096Z,100154.94
2022-12-11T12:15:59.365Z,100150.72
2022-12-11T12:18:58.263Z,100143.34
2022-12-11T12:21:35.557Z,100142.28
2022-12-11T12:24:56.366Z,100137.09
2022-12-11T12:27:52.210Z,100143.03
2022-12-11T12:30:22.769Z,100139.44
2022-12-11T12:33:02.447Z,100130.66
2022-12-11T12:35:37.962Z,100135.94
2022-12-11T12:38:15.165Z,100133.72
2022-12-11T12:40:57.629Z,100123.84
2022-12-11T12:43:35.733Z,100131.00
2022-12-11T12:46:22.704Z,100125.84
2022-12-11T12:48:52.226Z,100130.66
2022-12-11T12:51:19.017Z,100127.00
2022-12-11T12:53:55.666Z,100132.13
2022-12-11T12:56:24.006Z,100130.59
2022-12-11T12:58:50.578Z,100122.66
2022-12-11T13:01:21.790Z,100129.00
2022-12-11T13:04:06.708Z,100135.41
2022-12-11T13:06:39.135Z,100127.97
2022-12-11T13:09:18.938Z,100130.03
2022-12-11T13:11:47.046Z,100129.50
2022-12-11T13:14:13.474Z,100123.16
2022-12-11T13:16:42.179Z,100118.44
2022-12-11T13:19:23.975Z,100120.09
2022-12-11T13:22:06.150Z,100122.75
2022-12-11T13:24:34.002Z,100114.00
2022-12-11T13:27:30.008Z,100109.84
2022-12-11T13:30:06.213Z,100113.34
2022-12-11T13:32:33.691Z,100120.44
2022-12-11T13:35:05.354Z,100120.72
2022-12-11T13:37:38.712Z,100114.28
2022-12-11T13:40:22.251Z,100118.56
2022-12-11T13:42:59.368Z,100117.06
2022-12-11T13:45:30.044Z,100120.41
2022-12-11T13:47:58.400Z,100116.41
2022-12-11T13:50:32.889Z,100118.44
2022-12-11T13:53:01.510Z,100118.22
2022-12-11T13:55:32.007Z,100119.88
2022-12-11T13:57:58.652Z,100125.38
2022-12-11T14:00:28.420Z,100116.53
2022-12-11T14:02:57.153Z,100125.38
2022-12-11T14:05:24.462Z,100131.84
2022-12-11T14:07:54.854Z,100120.97
2022-12-11T14:10:24.979Z,100129.19
2022-12-11T14:12:57.081Z,100125.81
2022-12-11T14:15:24.034Z,100120.13
2022-12-11T14:17:52.026Z,100123.88
2022-12-11T14:20:24.408Z,100124.00
2022-12-11T14:22:51.606Z,100133.63
2022-12-11T14:25:24.782Z,100126.31
2022-12-11T14:27:54.154Z,100125.50
2022-12-11T14:30:30.226Z,100129.34
2022-12-11T14:33:02.790Z,100130.34
2022-12-11T14:35:38.579Z,100126.78
2022-12-11T14:38:30.182Z,100139.06
2022-12-11T14:41:02.229Z,100137.09
2022-12-11T14:43:35.332Z,100141.06
2022-12-11T14:46:10.706Z,100138.00
2022-12-11T14:48:43.588Z,100141.16
2022-12-11T14:51:17.647Z,100147.88
2022-12-11T14:53:48.615Z,100145.81
2022-12-11T14:56:25.146Z,100147.72
2022-12-11T14:59:06.305Z,100145.16
2022-12-11T15:01:35.892Z,100150.34
2022-12-11T15:04:04.399Z,100153.50
2022-12-11T15:06:34.047Z,100159.53
2022-12-11T15:09:18.503Z,100163.25
2022-12-11T15:11:46.395Z,100155.06
2022-12-11T15:14:13.762Z,100157.22
2022-12-11T15:16:42.173Z,100168.25
2022-12-11T15:19:20.143Z,100165.66
2022-12-11T15:21:47.394Z,100152.31
2022-12-11T15:24:27.849Z,100159.91
2022-12-11T15:26:58.660Z,100158.41
2022-12-11T15:29:37.335Z,100162.66
2022-12-11T15:32:18.927Z,100157.03
2022-12-11T15:34:55.566Z,100163.34
2022-12-11T15:37:30.368Z,100168.38
2022-12-11T15:39:59.650Z,100162.19
2022-12-11T15:42:30.028Z,100156.41
2022-12-11T15:44:56.904Z,100165.94
2022-12-11T15:47:26.921Z,100167.28
2022-12-11T15:50:02.340Z,100167.44
2022-12-11T15:52:29.127Z,100172.34
2022-12-11T15:54:55.654Z,100165.31
2022-12-11T15:57:24.384Z,100155.88
2022-12-11T15:59:52.745Z,100158.19
2022-12-11T16:02:19.530Z,100164.47
2022-12-11T16:04:46.194Z,100168.63
2022-12-11T16:07:16.961Z,100169.31
2022-12-11T16:09:43.899Z,100166.06
2022-12-11T16:12:10.782Z,100165.84
2022-12-11T16:14:40.204Z,100164.25
2022-12-11T16:17:08.442Z,100165.84
2022-12-11T16:19:36.001Z,100162.88
2022-12-11T16:22:02.904Z,100162.88
2022-12-11T16:24:30.549Z,100161.44
2022-12-11T16:26:57.135Z,100158.59
2022-12-11T16:29:24.009Z,100160.81
2022-12-11T16:31:50.555Z,100159.75
2022-12-11T16:34:17.147Z,100161.25
2022-12-11T16:36:43.807Z,100159.38
2022-12-11T16:39:12.243Z,100164.31
2022-12-11T16:41:38.941Z,100152.06
2022-12-11T16:44:06.518Z,100156.56
2022-12-11T16:46:33.389Z,100152.69
2022-12-11T16:48:59.954Z,100155.16
2022-12-11T16:51:26.918Z,100152.53
2022-12-11T16:53:53.506Z,100158.31
2022-12-11T16:56:20.155Z,100149.63
2022-12-11T16:58:47.570Z,100151.81
2022-12-11T17:01:15.691Z,100148.13
2022-12-11T17:03:43.566Z,100143.22
2022-12-11T17:06:12.270Z,100145.44
2022-12-11T17:08:39.291Z,100138.50
2022-12-11T17:11:07.449Z,100145.81
2022-12-11T17:13:36.229Z,100156.53
2022-12-11T17:16:14.592Z,100147.50
2022-12-11T17:18:42.218Z,100150.75
2022-12-11T17:21:12.377Z,100157.91
2022-12-11T17:23:40.101Z,100157.97
2022-12-11T17:26:09.390Z,100162.59
2022-12-11T17:28:36.958Z,100158.13
2022-12-11T17:31:05.776Z,100164.25
2022-12-11T17:33:32.381Z,100158.50
2022-12-11T17:36:00.609Z,100163.84
2022-12-11T17:38:27.166Z,100155.97
2022-12-11T17:40:54.185Z,100158.28
2022-12-11T17:43:20.727Z,100166.13
2022-12-11T17:45:55.149Z,100159.06
2022-12-11T17:48:22.672Z,100156.88
2022-12-11T17:50:51.395Z,100159.94
2022-12-11T17:53:20.487Z,100169.50
2022-12-11T17:55:48.424Z,100160.06
2022-12-11T17:58:17.708Z,100170.00
2022-12-11T18:00:46.416Z,100159.78
2022-12-11T18:03:14.834Z,100155.72
2022-12-11T18:05:53.839Z,100170.00
2022-12-11T18:08:24.999Z,100159.13
2022-12-11T18:10:52.550Z,100167.13
2022-12-11T18:13:19.860Z,100165.09
2022-12-11T18:15:46.690Z,100159.66
2022-12-11T18:18:13.211Z,100158.94
2022-12-11T18:20:39.955Z,100160.50
2022-12-11T18:23:06.569Z,100164.72
2022-12-11T18:25:33.277Z,100165.41
2022-12-11T18:28:00.111Z,100163.94
2022-12-11T18:30:27.906Z,100165.91
2022-12-11T18:32:54.580Z,100159.25
2022-12-11T18:35:21.518Z,100160.16
2022-12-11T18:37:48.065Z,100156.41
2022-12-11T18:40:14.787Z,100153.06
2022-12-11T18:42:41.434Z,100163.13
2022-12-11T18:45:08.700Z,100155.47
2022-12-11T18:47:35.662Z,100163.56
2022-12-11T18:50:07.373Z,100157.00
2022-12-11T18:52:35.020Z,100157.97
2022-12-11T18:55:01.778Z,100162.69
2022-12-11T18:57:28.448Z,100164.88
2022-12-11T18:59:55.096Z,100163.88
2022-12-11T19:02:22.089Z,100160.19
2022-12-11T19:04:48.730Z,100161.25
2022-12-11T19:07:15.275Z,100162.53
2022-12-11T19:09:47.649Z,100165.91
2022-12-11T19:12:14.975Z,100167.50
2022-12-11T19:14:41.592Z,100165.97
2022-12-11T19:17:08.252Z,100161.31
2022-12-11T19:19:35.859Z,100160.09
2022-12-11T19:22:02.538Z,100161.25
2022-12-11T19:24:29.109Z,100165.31
2022-12-11T19:26:56.597Z,100165.31
2022-12-11T19:29:29.021Z,100168.91
2022-12-11T19:31:55.949Z,100163.06
2022-12-11T19:34:23.494Z,100172.03
2022-12-11T19:36:50.723Z,100160.31
2022-12-11T19:39:17.771Z,100172.25
2022-12-11T19:41:44.306Z,100172.03
2022-12-11T19:44:11.573Z,100175.38
2022-12-11T19:46:38.833Z,100170.09
2022-12-11T19:49:05.747Z,100176.88
2022-12-11T19:51:36.402Z,100179.66
2022-12-11T19:54:04.047Z,100178.38
2022-12-11T19:56:32.093Z,100176.28
2022-12-11T19:59:00.584Z,100173.88
2022-12-11T20:01:30.857Z,100175.19
2022-12-11T20:04:00.393Z,100167.88
2022-12-11T20:06:29.070Z,100168.00
2022-12-11T20:08:55.711Z,100169.09
2022-12-11T20:11:22.369Z,100170.38
2022-12-11T20:13:49.662Z,100167.00
2022-12-11T20:16:17.541Z,100178.97
2022-12-11T20:18:45.081Z,100172.34
2022-12-11T20:21:14.882Z,100164.56
2022-12-11T20:23:41.981Z,100173.16
2022-12-11T20:26:30.919Z,100171.28
2022-12-11T20:28:57.634Z,100161.19
2022-12-11T20:31:25.977Z,100170.22
2022-12-11T20:33:55.473Z,100169.06
2022-12-11T20:36:23.567Z,100172.34
2022-12-11T20:38:50.871Z,100170.66
2022-12-11T20:41:20.403Z,100166.66
2022-12-11T20:43:48.841Z,100167.75
2022-12-11T20:46:17.530Z,100166.19
2022-12-11T20:48:45.116Z,100164.94
2022-12-11T20:51:13.929Z,100163.75
2022-12-11T20:53:42.249Z,100159.22
2022-12-11T20:56:16.126Z,100156.44
2022-12-11T20:58:43.430Z,100161.56
2022-12-11T21:01:15.337Z,100156.56
2022-12-11T21:03:42.587Z,100165.94
2022-12-11T21:06:33.606Z,100168.56
2022-12-11T21:09:02.339Z,100164.78
2022-12-11T21:11:29.118Z,100150.28
2022-12-11T21:13:55.805Z,100161.84
2022-12-11T21:16:22.816Z,100160.19
2022-12-11T21:18:49.487Z,100161.59
2022-12-11T21:21:16.822Z,100156.69
2022-12-11T21:23:44.304Z,100158.81
2022-12-11T21:26:10.833Z,100171.72
2022-12-11T21:28:37.416Z,100165.28
2022-12-11T21:31:07.801Z,100167.13
2022-12-11T21:33:35.038Z,100165.56
2022-12-11T21:36:03.056Z,100165.72
2022-12-11T21:38:29.734Z,100161.41
2022-12-11T21:40:57.381Z,100170.28
2022-12-11T21:43:24.727Z,100168.94
2022-12-11T21:46:01.149Z,100164.94
2022-12-11T21:48:28.806Z,100171.88
2022-12-11T21:50:55.982Z,100167.88
2022-12-11T21:53:22.552Z,100163.19
2022-12-11T21:55:49.045Z,100169.38
2022-12-11T21:58:15.629Z,100160.16
2022-12-11T22:00:42.233Z,100173.47
2022-12-11T22:03:08.849Z,100173.34
2022-12-11T22:05:35.347Z,100168.53
2022-12-11T22:08:02.159Z,100169.91
2022-12-11T22:10:29.142Z,100173.19
2022-12-11T22:12:55.958Z,100175.03
2022-12-11T22:15:22.511Z,100176.13
2022-12-11T22:17:49.144Z,100172.03
2022-12-11T22:20:15.727Z,100186.00
2022-12-11T22:22:42.878Z,100185.44
2022-12-11T22:25:09.921Z,100178.69
2022-12-11T22:27:36.750Z,100186.44
2022-12-11T22:30:04.408Z,100190.22
2022-12-11T22:32:31.214Z,100188.91
2022-12-11T22:34:57.857Z,100188.38
2022-12-11T22:37:24.892Z,100191.03
2022-12-11T22:39:51.770Z,100191.03
2022-12-11T22:42:18.430Z,100202.13
2022-12-11T22:44:44.913Z,100191.13
2022-12-11T22:47:11.578Z,100189.13
2022-12-11T22:49:38.561Z,100190.81
2022-12-11T22:52:05.263Z,100186.25
2022-12-11T22:54:31.937Z,100184.03
2022-12-11T22:56:58.524Z,100197.03
2022-12-11T22:59:25.076Z,100184.25
2022-12-11T23:01:51.736Z,100186.69
2022-12-11T23:04:18.280Z,100184.69
2022-12-11T23:06:44.837Z,100188.97
2022-12-11T23:09:11.576Z,100192.47
2022-12-11T23:11:38.840Z,100191.66
2022-12-11T23:14:08.258Z,100187.91
2022-12-11T23:16:35.094Z,100193.78
2022-12-11T23:19:02.025Z,100185.72
2022-12-11T23:21:29.295Z,100195.91
2022-12-11T23:23:57.080Z,100198.25
2022-12-11T23:26:24.260Z,100199.47
2022-12-11T23:28:50.832Z,100190.38
2022-12-11T23:31:17.974Z,100193.59
2022-12-11T23:33:44.962Z,100204.78
2022-12-11T23:36:12.745Z,100205.09
2022-12-11T23:38:40.098Z,100202.13
2022-12-11T23:41:08.926Z,100198.34
2022-12-11T23:43:36.753Z,100193.97
2022-12-11T23:46:04.610Z,100194.19
2022-12-11T23:48:31.204Z,100187.28
2022-12-11T23:51:00.256Z,100188.66
2022-12-11T23:53:28.098Z,100179.78
2022-12-11T23:55:54.774Z,100176.94
2022-12-11T23:58:21.376Z,100191.81
